createdAt,value
2022-10-19T00:02:20.727Z,19.60
2022-10-19T00:04:50.838Z,19.60
2022-10-19T00:07:20.668Z,19.70
2022-10-19T00:09:50.942Z,19.70
2022-10-19T00:12:20.868Z,19.70
2022-10-19T00:14:50.807Z,19.80
2022-10-19T00:17:20.587Z,19.80
2022-10-19T00:19:50.776Z,19.80
2022-10-19T00:22:20.964Z,19.90
2022-10-19T00:24:50.575Z,19.90
2022-10-19T00:27:20.119Z,19.90
2022-10-19T00:29:49.770Z,20.00
2022-10-19T00:32:19.281Z,20.00
2022-10-19T00:34:48.869Z,20.00
2022-10-19T00:37:18.457Z,20.10
2022-10-19T00:39:48.126Z,20.20
2022-10-19T00:42:17.618Z,20.20
2022-10-19T00:45:04.157Z,20.20
2022-10-19T00:47:34.680Z,20.30
2022-10-19T00:50:07.012Z,20.30
2022-10-19T00:52:36.912Z,20.40
2022-10-19T00:55:07.072Z,20.40
2022-10-19T00:57:36.968Z,20.50
2022-10-19T01:00:09.580Z,20.50
2022-10-19T01:02:39.293Z,20.60
2022-10-19T01:05:10.153Z,20.60
2022-10-19T01:07:40.458Z,20.70
2022-10-19T01:10:11.601Z,20.80
2022-10-19T01:13:17.399Z,20.80
2022-10-19T01:16:13.176Z,20.90
2022-10-19T01:18:57.785Z,20.90
2022-10-19T01:21:42.836Z,21.00
2022-10-19T01:25:03.867Z,21.10
2022-10-19T01:27:55.660Z,21.10
2022-10-19T01:34:13.047Z,21.30
2022-10-19T01:37:12.266Z,21.40
2022-10-19T01:40:09.015Z,21.40
2022-10-19T01:45:41.898Z,21.60
2022-10-19T01:48:33.511Z,21.70
2022-10-19T01:51:08.634Z,21.70
2022-10-19T01:53:48.181Z,21.80
2022-10-19T01:56:26.607Z,21.90
2022-10-19T01:59:01.061Z,21.90
2022-10-19T02:01:36.393Z,22.00
2022-10-19T02:04:10.305Z,22.10
2022-10-19T02:06:42.118Z,22.20
2022-10-19T02:09:21.040Z,22.30
2022-10-19T02:11:59.433Z,22.40
2022-10-19T02:17:32.252Z,22.60
2022-10-19T02:20:09.400Z,22.70
2022-10-19T02:22:45.131Z,22.70
2022-10-19T02:25:19.777Z,22.80
2022-10-19T02:27:54.769Z,22.80
2022-10-19T02:30:26.015Z,22.90
2022-10-19T02:32:57.480Z,23.00
2022-10-19T02:35:27.856Z,23.00
2022-10-19T02:38:01.766Z,23.10
2022-10-19T02:40:39.785Z,23.20
2022-10-19T02:43:16.393Z,23.20
2022-10-19T02:46:01.810Z,23.30
2022-10-19T02:48:38.561Z,23.40
2022-10-19T02:51:09.929Z,23.50
2022-10-19T02:53:49.137Z,23.50
2022-10-19T02:56:20.615Z,23.60
2022-10-19T02:58:51.552Z,23.70
2022-10-19T03:01:25.833Z,23.70
2022-10-19T03:04:00.106Z,23.80
2022-10-19T03:06:31.430Z,23.80
2022-10-19T03:09:01.669Z,23.90
2022-10-19T03:11:45.605Z,24.00
2022-10-19T03:14:16.793Z,24.00
2022-10-19T03:16:50.706Z,24.10
2022-10-19T03:19:23.393Z,24.20
2022-10-19T03:21:59.909Z,24.20
2022-10-19T03:27:25.918Z,24.30
2022-10-19T03:30:08.968Z,24.40
2022-10-19T03:32:45.235Z,24.50
2022-10-19T03:35:15.861Z,24.50
2022-10-19T03:37:46.336Z,24.60
2022-10-19T03:40:24.416Z,24.70
2022-10-19T03:42:54.023Z,24.80
2022-10-19T03:45:29.137Z,24.80
2022-10-19T03:48:02.543Z,24.90
2022-10-19T03:50:34.203Z,24.90
2022-10-19T03:53:04.453Z,25.00
2022-10-19T03:55:34.778Z,25.10
2022-10-19T03:58:10.849Z,25.10
2022-10-19T04:00:44.021Z,25.20
2022-10-19T04:03:17.155Z,25.30
2022-10-19T04:05:50.201Z,25.30
2022-10-19T04:11:08.901Z,25.50
2022-10-19T04:13:40.449Z,25.60
2022-10-19T04:16:14.382Z,25.60
2022-10-19T04:18:50.802Z,25.70
2022-10-19T04:21:43.541Z,25.80
2022-10-19T04:24:19.728Z,25.80
2022-10-19T04:26:59.455Z,25.90
2022-10-19T04:29:32.161Z,25.90
2022-10-19T04:32:13.654Z,26.00
2022-10-19T04:34:44.920Z,26.00
2022-10-19T04:37:17.689Z,26.10
2022-10-19T04:39:56.169Z,26.10
2022-10-19T04:42:26.353Z,26.20
2022-10-19T04:44:57.616Z,26.30
2022-10-19T04:47:31.095Z,26.30
2022-10-19T04:50:04.259Z,26.40
2022-10-19T04:52:44.204Z,26.50
2022-10-19T04:55:37.541Z,26.50
2022-10-19T04:58:10.057Z,26.60
2022-10-19T05:00:44.435Z,26.70
2022-10-19T05:03:21.034Z,26.70
2022-10-19T05:08:33.978Z,26.80
2022-10-19T05:11:18.022Z,26.80
2022-10-19T05:13:56.387Z,26.90
2022-10-19T05:16:27.709Z,26.90
2022-10-19T05:19:10.337Z,27.00
2022-10-19T05:21:40.975Z,27.00
2022-10-19T05:24:15.641Z,27.00
2022-10-19T05:26:54.594Z,27.10
2022-10-19T05:32:13.511Z,27.20
2022-10-19T05:34:45.025Z,27.20
2022-10-19T05:37:15.352Z,27.20
2022-10-19T05:39:49.012Z,27.30
2022-10-19T05:42:22.485Z,27.30
2022-10-19T05:44:59.443Z,27.30
2022-10-19T05:47:31.270Z,27.40
2022-10-19T05:50:08.970Z,27.40
2022-10-19T05:55:26.098Z,27.40
2022-10-19T05:58:06.000Z,27.50
2022-10-19T06:00:43.520Z,27.50
2022-10-19T06:03:16.132Z,27.50
2022-10-19T06:05:49.162Z,27.60
2022-10-19T06:08:27.866Z,27.60
2022-10-19T06:13:54.990Z,27.70
2022-10-19T06:16:28.317Z,27.70
2022-10-19T06:19:12.969Z,27.70
2022-10-19T06:21:51.121Z,27.80
2022-10-19T06:24:26.616Z,27.80
2022-10-19T06:27:01.262Z,27.90
2022-10-19T06:29:41.837Z,27.90
2022-10-19T06:32:18.033Z,27.90
2022-10-19T06:34:55.734Z,27.90
2022-10-19T06:40:20.951Z,27.90
2022-10-19T06:42:51.241Z,27.90
2022-10-19T06:45:22.306Z,28.00
2022-10-19T06:47:52.687Z,28.00
2022-10-19T06:50:35.591Z,28.00
2022-10-19T06:55:51.769Z,28.00
2022-10-19T06:58:34.046Z,28.10
2022-10-19T07:01:08.879Z,28.10
2022-10-19T07:03:48.134Z,28.10
2022-10-19T07:06:24.162Z,28.10
2022-10-19T07:08:56.519Z,28.20
2022-10-19T07:11:29.582Z,28.20
2022-10-19T07:14:06.576Z,28.20
2022-10-19T07:16:40.453Z,28.20
2022-10-19T07:19:12.504Z,28.20
2022-10-19T07:27:16.677Z,28.30
2022-10-19T07:29:54.876Z,28.30
2022-10-19T07:35:13.882Z,28.30
2022-10-19T07:37:44.366Z,28.40
2022-10-19T07:40:16.670Z,28.30
2022-10-19T07:42:59.275Z,28.40
2022-10-19T07:45:37.476Z,28.40
2022-10-19T07:48:13.359Z,28.40
2022-10-19T07:50:52.663Z,28.40
2022-10-19T07:53:26.315Z,28.40
2022-10-19T07:56:00.966Z,28.40
2022-10-19T07:58:44.273Z,28.40
2022-10-19T08:01:26.151Z,28.40
2022-10-19T08:06:56.777Z,28.40
2022-10-19T08:14:59.525Z,28.40
2022-10-19T08:17:31.252Z,28.40
2022-10-19T08:20:05.734Z,28.30
2022-10-19T08:22:38.783Z,28.40
2022-10-19T08:25:09.476Z,28.40
2022-10-19T08:27:44.192Z,28.40
2022-10-19T08:30:22.206Z,28.40
2022-10-19T08:33:03.137Z,28.40
2022-10-19T08:38:35.562Z,28.40
2022-10-19T08:44:57.833Z,28.40
2022-10-19T08:47:57.325Z,28.40
2022-10-19T08:50:46.033Z,28.40
2022-10-19T08:53:49.397Z,28.30
2022-10-19T08:56:51.820Z,28.30
2022-10-19T08:59:57.253Z,28.30
2022-10-19T09:03:02.496Z,28.30
2022-10-19T09:05:54.392Z,28.30
2022-10-19T09:11:16.131Z,28.30
2022-10-19T09:14:05.991Z,28.20
2022-10-19T09:17:46.176Z,28.20
2022-10-19T09:20:24.358Z,28.20
2022-10-19T09:23:24.163Z,28.10
2022-10-19T09:26:00.838Z,28.10
2022-10-19T09:29:04.257Z,28.10
2022-10-19T09:31:45.381Z,28.00
2022-10-19T09:37:15.909Z,28.00
2022-10-19T09:39:54.190Z,27.90
2022-10-19T09:42:37.466Z,27.80
2022-10-19T09:45:34.321Z,27.80
2022-10-19T09:48:29.931Z,27.70
2022-10-19T09:51:12.789Z,27.70
2022-10-19T09:53:54.889Z,27.60
2022-10-19T09:56:33.189Z,27.60
2022-10-19T09:59:08.224Z,27.50
2022-10-19T10:01:48.100Z,27.50
2022-10-19T10:04:23.357Z,27.40
2022-10-19T10:06:54.964Z,27.40
2022-10-19T10:09:45.215Z,27.40
2022-10-19T10:12:18.215Z,27.30
2022-10-19T10:14:55.762Z,27.20
2022-10-19T10:17:46.217Z,27.20
2022-10-19T10:20:33.623Z,27.20
2022-10-19T10:23:19.419Z,27.10
2022-10-19T10:25:58.131Z,27.00
2022-10-19T10:28:31.091Z,27.00
2022-10-19T10:31:08.986Z,26.90
2022-10-19T10:33:45.797Z,26.90
2022-10-19T10:36:18.880Z,26.80
2022-10-19T10:44:35.103Z,26.60
2022-10-19T10:50:05.986Z,26.40
2022-10-19T10:52:39.437Z,26.40
2022-10-19T10:55:34.221Z,26.30
2022-10-19T10:58:33.595Z,26.20
2022-10-19T11:01:10.247Z,26.10
2022-10-19T11:03:48.532Z,26.10
2022-10-19T11:06:28.281Z,26.00
2022-10-19T11:09:27.628Z,25.80
2022-10-19T11:12:16.273Z,25.80
2022-10-19T11:15:09.641Z,25.70
2022-10-19T11:17:46.526Z,25.60
2022-10-19T11:20:31.851Z,25.50
2022-10-19T11:26:34.688Z,25.40
2022-10-19T11:29:51.592Z,25.30
2022-10-19T11:36:00.282Z,25.10
2022-10-19T11:38:46.881Z,25.00
2022-10-19T11:41:53.603Z,24.90
2022-10-19T11:44:57.361Z,24.90
2022-10-19T11:47:55.689Z,24.70
2022-10-19T11:51:16.920Z,24.70
2022-10-19T11:54:39.563Z,24.60
2022-10-19T11:57:22.452Z,24.50
2022-10-19T12:00:37.544Z,24.40
2022-10-19T12:03:46.438Z,24.30
2022-10-19T12:09:51.309Z,24.20
2022-10-19T12:12:53.111Z,24.10
2022-10-19T12:18:51.382Z,24.00
2022-10-19T12:21:42.407Z,24.00
2022-10-19T12:24:26.976Z,23.90
2022-10-19T12:27:07.599Z,23.90
2022-10-19T12:32:32.340Z,23.80
2022-10-19T12:35:33.095Z,23.80
2022-10-19T12:38:24.965Z,23.70
2022-10-19T12:41:22.065Z,23.70
2022-10-19T12:44:17.790Z,23.70
2022-10-19T12:47:14.297Z,23.60
2022-10-19T12:52:59.802Z,23.50
2022-10-19T12:58:29.961Z,23.40
2022-10-19T13:01:12.883Z,23.40
2022-10-19T13:03:53.117Z,23.40
2022-10-19T13:12:49.532Z,23.20
2022-10-19T13:16:05.974Z,23.20
2022-10-19T13:19:12.851Z,23.20
2022-10-19T13:22:32.030Z,23.10
2022-10-19T13:37:10.489Z,22.80
2022-10-19T13:39:48.826Z,22.80
2022-10-19T13:42:31.094Z,22.80
2022-10-19T13:45:07.236Z,22.80
2022-10-19T13:47:54.213Z,22.70
2022-10-19T13:50:56.401Z,22.70
2022-10-19T14:00:20.265Z,22.60
2022-10-19T14:03:23.685Z,22.60
2022-10-19T14:06:32.473Z,22.50
2022-10-19T14:12:35.478Z,22.50
2022-10-19T14:15:33.255Z,22.40
2022-10-19T14:21:07.672Z,22.40
2022-10-19T14:23:49.025Z,22.30
2022-10-19T14:26:24.542Z,22.30
2022-10-19T14:29:00.335Z,22.30
2022-10-19T14:31:37.246Z,22.30
2022-10-19T14:34:11.667Z,22.20
2022-10-19T14:36:48.918Z,22.20
2022-10-19T14:39:34.135Z,22.20
2022-10-19T14:42:12.142Z,22.20
2022-10-19T14:44:46.887Z,22.10
2022-10-19T14:47:25.719Z,22.10
2022-10-19T14:49:56.451Z,22.10
2022-10-19T14:52:38.759Z,22.10
2022-10-19T14:55:16.935Z,22.10
2022-10-19T14:57:51.519Z,22.00
2022-10-19T15:03:09.351Z,22.00
2022-10-19T15:05:44.602Z,21.90
2022-10-19T15:08:29.857Z,21.90
2022-10-19T15:11:00.844Z,21.90
2022-10-19T15:13:39.666Z,21.90
2022-10-19T15:16:29.768Z,21.90
2022-10-19T15:19:04.487Z,21.80
2022-10-19T15:21:35.123Z,21.80
2022-10-19T15:24:25.906Z,21.80
2022-10-19T15:27:08.676Z,21.70
2022-10-19T15:29:39.860Z,21.70
2022-10-19T15:32:30.286Z,21.70
2022-10-19T15:35:01.338Z,21.70
2022-10-19T15:37:31.981Z,21.70
2022-10-19T15:40:12.897Z,21.60
2022-10-19T15:42:48.863Z,21.60
2022-10-19T15:45:39.987Z,21.60
2022-10-19T15:48:27.861Z,21.50
2022-10-19T15:50:59.323Z,21.50
2022-10-19T15:53:29.972Z,21.50
2022-10-19T15:56:01.540Z,21.40
2022-10-19T15:58:32.024Z,21.40
2022-10-19T16:01:02.687Z,21.40
2022-10-19T16:03:33.181Z,21.40
2022-10-19T16:06:03.762Z,21.40
2022-10-19T16:08:34.402Z,21.40
2022-10-19T16:11:06.114Z,21.30
2022-10-19T16:13:37.906Z,21.30
2022-10-19T16:16:11.635Z,21.30
2022-10-19T16:18:45.363Z,21.30
2022-10-19T16:21:16.558Z,21.30
2022-10-19T16:23:47.108Z,21.30
2022-10-19T16:26:18.882Z,21.30
2022-10-19T16:28:50.823Z,21.30
2022-10-19T16:31:25.581Z,21.30
2022-10-19T16:33:56.103Z,21.20
2022-10-19T16:36:27.444Z,21.20
2022-10-19T16:38:58.041Z,21.20
2022-10-19T16:41:28.677Z,21.10
2022-10-19T16:44:00.091Z,21.10
2022-10-19T16:46:30.600Z,21.10
2022-10-19T16:49:01.237Z,21.10
2022-10-19T16:51:46.052Z,21.10
2022-10-19T16:54:17.687Z,21.10
2022-10-19T16:56:50.286Z,21.10
2022-10-19T16:59:24.470Z,21.00
2022-10-19T17:01:58.341Z,21.00
2022-10-19T17:04:29.198Z,21.00
2022-10-19T17:06:59.642Z,21.00
2022-10-19T17:09:41.256Z,21.00
2022-10-19T17:12:14.361Z,20.90
2022-10-19T17:14:45.676Z,20.90
2022-10-19T17:17:16.219Z,20.90
2022-10-19T17:19:47.926Z,20.90
2022-10-19T17:22:21.477Z,20.90
2022-10-19T17:24:52.177Z,20.80
2022-10-19T17:27:23.675Z,20.80
2022-10-19T17:29:54.246Z,20.80
2022-10-19T17:32:24.732Z,20.80
2022-10-19T17:34:57.267Z,20.80
2022-10-19T17:37:27.785Z,20.80
2022-10-19T17:39:58.296Z,20.70
2022-10-19T17:42:28.867Z,20.70
2022-10-19T17:44:59.455Z,20.70
2022-10-19T17:47:29.891Z,20.70
2022-10-19T17:50:00.420Z,20.70
2022-10-19T17:52:30.957Z,20.70
2022-10-19T17:55:11.796Z,20.70
2022-10-19T17:57:42.861Z,20.60
2022-10-19T18:00:13.748Z,20.60
2022-10-19T18:02:47.403Z,20.60
2022-10-19T18:05:18.071Z,20.60
2022-10-19T18:07:48.734Z,20.60
2022-10-19T18:10:19.365Z,20.50
2022-10-19T18:12:50.474Z,20.50
2022-10-19T18:15:21.182Z,20.50
2022-10-19T18:17:52.301Z,20.50
2022-10-19T18:20:22.870Z,20.50
2022-10-19T18:22:53.371Z,20.50
2022-10-19T18:25:42.131Z,20.40
2022-10-19T18:28:14.838Z,20.40
2022-10-19T18:30:45.452Z,20.40
2022-10-19T18:33:16.076Z,20.40
2022-10-19T18:35:47.866Z,20.40
2022-10-19T18:38:18.319Z,20.40
2022-10-19T18:40:48.827Z,20.40
2022-10-19T18:43:19.659Z,20.30
2022-10-19T18:46:01.020Z,20.40
2022-10-19T18:48:33.704Z,20.30
2022-10-19T18:51:07.423Z,20.30
2022-10-19T18:53:38.447Z,20.30
2022-10-19T18:56:11.903Z,20.30
2022-10-19T18:58:43.295Z,20.30
2022-10-19T19:01:28.725Z,20.30
2022-10-19T19:04:03.347Z,20.30
2022-10-19T19:06:36.436Z,20.20
2022-10-19T19:09:13.149Z,20.30
2022-10-19T19:11:44.244Z,20.20
2022-10-19T19:14:18.576Z,20.20
2022-10-19T19:16:50.231Z,20.20
2022-10-19T19:19:22.363Z,20.20
2022-10-19T19:21:52.977Z,20.20
2022-10-19T19:24:24.629Z,20.10
2022-10-19T19:26:56.955Z,20.10
2022-10-19T19:29:27.971Z,20.10
2022-10-19T19:31:58.519Z,20.10
2022-10-19T19:34:29.010Z,20.10
2022-10-19T19:36:59.569Z,20.00
2022-10-19T19:39:30.011Z,20.10
2022-10-19T19:42:00.745Z,20.00
2022-10-19T19:44:31.746Z,20.00
2022-10-19T19:47:03.922Z,20.00
2022-10-19T19:49:34.494Z,20.00
2022-10-19T19:52:05.097Z,20.00
2022-10-19T19:54:35.639Z,20.00
2022-10-19T19:57:08.116Z,20.00
2022-10-19T19:59:38.516Z,20.00
2022-10-19T20:02:09.306Z,20.00
2022-10-19T20:04:39.932Z,19.90
2022-10-19T20:07:10.536Z,20.00
2022-10-19T20:09:41.086Z,19.90
2022-10-19T20:12:11.643Z,20.00
2022-10-19T20:14:42.126Z,19.90
2022-10-19T20:17:13.835Z,19.90
2022-10-19T20:19:44.378Z,19.90
2022-10-19T20:22:15.573Z,19.90
2022-10-19T20:24:46.232Z,19.90
2022-10-19T20:27:18.605Z,19.90
2022-10-19T20:29:49.029Z,19.80
2022-10-19T20:32:19.466Z,19.80
2022-10-19T20:34:49.997Z,19.80
2022-10-19T20:37:21.103Z,19.80
2022-10-19T20:39:51.976Z,19.80
2022-10-19T20:42:23.651Z,19.80
2022-10-19T20:44:56.601Z,19.80
2022-10-19T20:47:27.139Z,19.70
2022-10-19T20:49:57.636Z,19.80
2022-10-19T20:52:28.140Z,19.70
2022-10-19T20:54:58.580Z,19.70
2022-10-19T20:57:28.953Z,19.70
2022-10-19T20:59:59.416Z,19.70
2022-10-19T21:02:29.839Z,19.70
2022-10-19T21:05:00.231Z,19.70
2022-10-19T21:07:30.659Z,19.70
2022-10-19T21:10:01.113Z,19.60
2022-10-19T21:12:31.517Z,19.60
2022-10-19T21:15:01.980Z,19.60
2022-10-19T21:17:33.068Z,19.60
2022-10-19T21:20:03.502Z,19.60
2022-10-19T21:22:37.901Z,19.60
2022-10-19T21:25:11.262Z,19.60
2022-10-19T21:27:41.770Z,19.60
2022-10-19T21:30:12.643Z,19.50
2022-10-19T21:32:47.363Z,19.50
2022-10-19T21:35:24.492Z,19.50
2022-10-19T21:38:02.052Z,19.50
2022-10-19T21:40:45.832Z,19.50
2022-10-19T21:43:17.047Z,19.50
2022-10-19T21:45:47.277Z,19.50
2022-10-19T21:48:19.217Z,19.40
2022-10-19T21:50:50.189Z,19.40
2022-10-19T21:53:36.178Z,19.40
2022-10-19T21:56:06.410Z,19.40
2022-10-19T21:58:37.026Z,19.40
2022-10-19T22:01:09.783Z,19.40
2022-10-19T22:03:40.247Z,19.40
2022-10-19T22:06:11.011Z,19.40
2022-10-19T22:08:41.927Z,19.40
2022-10-19T22:11:14.790Z,19.40
2022-10-19T22:13:45.615Z,19.30
2022-10-19T22:16:22.373Z,19.30
2022-10-19T22:18:54.214Z,19.30
2022-10-19T22:21:28.083Z,19.30
2022-10-19T22:24:05.273Z,19.30
2022-10-19T22:26:41.992Z,19.30
2022-10-19T22:29:12.813Z,19.30
2022-10-19T22:31:43.508Z,19.30
2022-10-19T22:34:17.691Z,19.30
2022-10-19T22:36:48.313Z,19.30
2022-10-19T22:39:19.303Z,19.30
2022-10-19T22:41:49.725Z,19.30
2022-10-19T22:44:58.871Z,19.20
2022-10-19T22:48:08.096Z,19.20
2022-10-19T22:51:17.701Z,19.20
2022-10-19T22:53:48.398Z,19.20
2022-10-19T22:56:18.821Z,19.20
2022-10-19T22:58:49.338Z,19.20
2022-10-19T23:01:20.257Z,19.20
2022-10-19T23:03:50.586Z,19.20
2022-10-19T23:06:21.144Z,19.20
2022-10-19T23:08:51.916Z,19.20
2022-10-19T23:11:22.677Z,19.10
2022-10-19T23:13:53.041Z,19.10
2022-10-19T23:16:23.482Z,19.10
2022-10-19T23:18:54.583Z,19.10
2022-10-19T23:24:13.318Z,19.10
2022-10-19T23:29:26.296Z,19.10
2022-10-19T23:31:56.476Z,19.10
2022-10-19T23:34:26.547Z,19.10
2022-10-19T23:36:56.641Z,19.00
2022-10-19T23:39:26.724Z,19.10
2022-10-19T23:41:56.742Z,19.00
2022-10-19T23:44:26.798Z,19.00
2022-10-19T23:46:56.816Z,19.00
2022-10-19T23:49:26.869Z,19.00
2022-10-19T23:51:56.873Z,19.10
2022-10-19T23:54:27.593Z,19.10
2022-10-19T23:56:57.646Z,19.10
2022-10-19T23:59:27.723Z,19.10
